createdAt,value
2022-09-24T00:01:33.211Z,9.53
2022-09-24T00:04:03.320Z,9.70
2022-09-24T00:06:34.887Z,9.65
2022-09-24T00:09:02.662Z,9.65
2022-09-24T00:11:30.837Z,9.50
2022-09-24T00:14:00.229Z,9.10
2022-09-24T00:16:30.409Z,9.65
2022-09-24T00:18:59.305Z,9.65
2022-09-24T00:21:28.835Z,9.80
2022-09-24T00:23:58.762Z,10.02
2022-09-24T00:26:44.167Z,9.35
2022-09-24T00:29:15.575Z,9.98
2022-09-24T00:31:43.720Z,10.32
2022-09-24T00:34:11.805Z,9.80
2022-09-24T00:36:39.643Z,9.70
2022-09-24T00:39:07.707Z,9.63
2022-09-24T00:41:37.708Z,9.10
2022-09-24T00:44:48.698Z,9.48
2022-09-24T00:47:26.071Z,9.18
2022-09-24T00:49:58.971Z,9.07
2022-09-24T00:52:27.232Z,9.20
2022-09-24T00:54:55.449Z,8.70
2022-09-24T00:57:24.083Z,8.93
2022-09-24T00:59:54.832Z,9.00
2022-09-24T01:02:22.956Z,8.88
2022-09-24T01:04:55.670Z,8.40
2022-09-24T01:07:25.719Z,9.25
2022-09-24T01:09:53.819Z,8.45
2022-09-24T01:12:29.898Z,8.43
2022-09-24T01:15:09.699Z,8.02
2022-09-24T01:17:41.682Z,7.65
2022-09-24T01:20:38.718Z,8.10
2022-09-24T01:23:21.650Z,7.50
2022-09-24T01:26:06.123Z,7.45
2022-09-24T01:28:40.839Z,7.50
2022-09-24T01:31:16.326Z,7.00
2022-09-24T01:33:46.900Z,7.30
2022-09-24T01:36:16.480Z,8.00
2022-09-24T01:38:47.733Z,6.85
2022-09-24T01:41:17.311Z,6.80
2022-09-24T01:43:46.064Z,7.13
2022-09-24T01:46:19.375Z,7.03
2022-09-24T01:48:48.187Z,7.20
2022-09-24T01:51:22.047Z,6.72
2022-09-24T01:53:55.579Z,7.53
2022-09-24T01:56:27.626Z,6.88
2022-09-24T01:59:00.664Z,6.88
2022-09-24T02:01:34.911Z,7.20
2022-09-24T02:04:08.174Z,7.50
2022-09-24T02:06:43.639Z,6.78
2022-09-24T02:09:33.199Z,7.05
2022-09-24T02:12:07.095Z,7.03
2022-09-24T02:14:39.992Z,6.93
2022-09-24T02:17:11.737Z,6.45
2022-09-24T02:19:42.062Z,7.03
2022-09-24T02:22:13.648Z,6.53
2022-09-24T02:24:47.586Z,7.07
2022-09-24T02:27:15.586Z,6.63
2022-09-24T02:29:44.328Z,6.87
2022-09-24T02:32:19.223Z,6.13
2022-09-24T02:34:51.090Z,6.53
2022-09-24T02:37:20.253Z,5.82
2022-09-24T02:39:48.177Z,5.45
2022-09-24T02:42:17.216Z,6.13
2022-09-24T02:44:45.317Z,5.93
2022-09-24T02:47:14.751Z,7.25
2022-09-24T02:49:42.512Z,5.80
2022-09-24T02:52:10.336Z,5.80
2022-09-24T02:54:38.277Z,5.80
2022-09-24T02:57:06.343Z,5.35
2022-09-24T02:59:34.116Z,5.43
2022-09-24T03:02:01.987Z,5.07
2022-09-24T03:04:31.739Z,5.65
2022-09-24T03:06:59.512Z,6.00
2022-09-24T03:09:27.383Z,6.38
2022-09-24T03:11:55.727Z,5.80
2022-09-24T03:14:23.499Z,5.18
2022-09-24T03:16:51.246Z,6.53
2022-09-24T03:19:19.002Z,5.30
2022-09-24T03:21:48.126Z,5.47
2022-09-24T03:24:15.881Z,5.00
2022-09-24T03:26:43.647Z,6.05
2022-09-24T03:29:11.594Z,6.33
2022-09-24T03:31:38.482Z,5.50
2022-09-24T03:34:06.295Z,5.38
2022-09-24T03:36:34.578Z,5.18
2022-09-24T03:39:03.742Z,5.22
2022-09-24T03:41:31.477Z,5.25
2022-09-24T03:43:59.263Z,5.20
2022-09-24T03:46:28.335Z,5.13
2022-09-24T03:48:56.264Z,5.72
2022-09-24T03:51:24.422Z,6.70
2022-09-24T03:53:52.251Z,5.53
2022-09-24T03:56:21.405Z,5.60
2022-09-24T03:58:49.178Z,5.55
2022-09-24T04:01:21.200Z,5.22
2022-09-24T04:03:49.816Z,5.55
2022-09-24T04:06:22.068Z,5.30
2022-09-24T04:08:51.419Z,5.47
2022-09-24T04:11:20.960Z,5.30
2022-09-24T04:13:48.713Z,5.30
2022-09-24T04:16:17.120Z,5.18
2022-09-24T04:18:46.472Z,5.20
2022-09-24T04:21:14.216Z,5.40
2022-09-24T04:23:42.002Z,5.13
2022-09-24T04:26:10.356Z,5.30
2022-09-24T04:28:39.701Z,5.07
2022-09-24T04:31:07.497Z,5.07
2022-09-24T04:33:35.319Z,5.13
2022-09-24T04:36:03.320Z,5.63
2022-09-24T04:38:31.524Z,4.80
2022-09-24T04:41:06.142Z,5.20
2022-09-24T04:43:34.099Z,6.13
2022-09-24T04:46:03.645Z,5.13
2022-09-24T04:48:31.518Z,7.47
2022-09-24T04:50:59.303Z,5.00
2022-09-24T04:53:27.587Z,5.80
2022-09-24T04:55:55.346Z,5.57
2022-09-24T04:58:23.122Z,4.90
2022-09-24T05:00:51.129Z,5.30
2022-09-24T05:03:21.152Z,4.88
2022-09-24T05:05:50.015Z,4.78
2022-09-24T05:08:17.766Z,4.88
2022-09-24T05:10:45.572Z,5.10
2022-09-24T05:13:13.388Z,5.35
2022-09-24T05:15:43.349Z,5.53
2022-09-24T05:18:11.296Z,5.35
2022-09-24T05:20:41.136Z,5.28
2022-09-24T05:23:09.179Z,5.60
2022-09-24T05:25:57.263Z,4.95
2022-09-24T05:28:24.193Z,5.25
2022-09-24T05:30:52.013Z,4.90
2022-09-24T05:33:20.189Z,4.78
2022-09-24T05:35:55.601Z,4.50
2022-09-24T05:38:23.441Z,4.90
2022-09-24T05:40:51.600Z,5.05
2022-09-24T05:43:20.183Z,4.90
2022-09-24T05:45:49.983Z,4.97
2022-09-24T05:48:17.782Z,5.15
2022-09-24T05:50:45.526Z,5.03
2022-09-24T05:53:14.654Z,4.78
2022-09-24T05:55:43.788Z,5.65
2022-09-24T05:58:12.146Z,5.10
2022-09-24T06:00:40.174Z,5.20
2022-09-24T06:03:12.526Z,5.43
2022-09-24T06:05:44.341Z,5.22
2022-09-24T06:08:12.131Z,6.22
2022-09-24T06:10:41.215Z,4.97
2022-09-24T06:13:11.478Z,5.22
2022-09-24T06:15:39.995Z,6.18
2022-09-24T06:18:07.810Z,5.10
2022-09-24T06:20:36.048Z,5.00
2022-09-24T06:23:04.241Z,4.85
2022-09-24T06:25:32.430Z,5.37
2022-09-24T06:28:04.066Z,4.50
2022-09-24T06:30:35.015Z,5.28
2022-09-24T06:33:05.233Z,4.78
2022-09-24T06:35:34.685Z,4.47
2022-09-24T06:38:02.479Z,4.68
2022-09-24T06:40:34.049Z,5.57
2022-09-24T06:43:06.548Z,5.05
2022-09-24T06:45:34.790Z,4.93
2022-09-24T06:48:04.287Z,4.35
2022-09-24T06:50:34.239Z,4.82
2022-09-24T06:53:05.324Z,4.70
2022-09-24T06:55:33.699Z,4.40
2022-09-24T06:58:08.235Z,4.53
2022-09-24T07:00:36.933Z,4.63
2022-09-24T07:03:06.001Z,4.85
2022-09-24T07:05:36.301Z,5.35
2022-09-24T07:08:07.895Z,6.03
2022-09-24T07:10:35.829Z,4.07
2022-09-24T07:13:03.667Z,4.30
2022-09-24T07:15:32.766Z,5.15
2022-09-24T07:18:00.723Z,4.13
2022-09-24T07:20:28.740Z,3.92
2022-09-24T07:22:56.718Z,4.40
2022-09-24T07:25:24.753Z,5.60
2022-09-24T07:27:52.523Z,4.00
2022-09-24T07:30:20.495Z,4.30
2022-09-24T07:32:55.196Z,4.30
2022-09-24T07:35:23.529Z,4.25
2022-09-24T07:37:57.737Z,4.20
2022-09-24T07:40:26.727Z,5.57
2022-09-24T07:42:55.412Z,4.47
2022-09-24T07:45:24.029Z,4.28
2022-09-24T07:47:59.689Z,4.88
2022-09-24T07:50:28.930Z,4.70
2022-09-24T07:52:57.011Z,4.55
2022-09-24T07:55:25.692Z,5.33
2022-09-24T07:57:55.345Z,5.53
2022-09-24T08:00:24.690Z,6.53
2022-09-24T08:02:53.764Z,5.00
2022-09-24T08:05:22.969Z,5.35
2022-09-24T08:07:52.912Z,5.97
2022-09-24T08:10:20.901Z,7.10
2022-09-24T08:12:49.149Z,6.15
2022-09-24T08:15:17.305Z,7.63
2022-09-24T08:17:45.525Z,7.75
2022-09-24T08:20:14.090Z,7.38
2022-09-24T08:22:43.199Z,8.85
2022-09-24T08:25:11.094Z,8.95
2022-09-24T08:27:38.901Z,9.48
2022-09-24T08:30:08.093Z,7.82
2022-09-24T08:32:36.337Z,7.97
2022-09-24T08:35:04.440Z,7.57
2022-09-24T08:37:32.178Z,7.15
2022-09-24T08:40:01.414Z,7.23
2022-09-24T08:42:41.881Z,7.70
2022-09-24T08:45:31.855Z,8.05
2022-09-24T08:48:05.832Z,8.02
2022-09-24T08:50:39.415Z,7.97
2022-09-24T08:53:16.252Z,7.43
2022-09-24T08:55:48.320Z,7.03
2022-09-24T08:58:31.419Z,7.13
2022-09-24T09:01:06.616Z,6.75
2022-09-24T09:03:38.253Z,7.07
2022-09-24T09:06:13.180Z,6.70
2022-09-24T09:09:06.268Z,7.25
2022-09-24T09:11:38.699Z,6.70
2022-09-24T09:14:13.657Z,7.55
2022-09-24T09:16:47.452Z,6.80
2022-09-24T09:19:18.307Z,7.07
2022-09-24T09:21:52.562Z,6.55
2022-09-24T09:24:24.242Z,7.70
2022-09-24T09:26:56.275Z,6.95
2022-09-24T09:29:25.998Z,7.45
2022-09-24T09:32:03.227Z,7.23
2022-09-24T09:34:52.720Z,7.63
2022-09-24T09:37:29.068Z,7.60
2022-09-24T09:40:10.315Z,7.40
2022-09-24T09:42:40.350Z,7.75
2022-09-24T09:45:24.202Z,6.95
2022-09-24T09:47:57.732Z,6.43
2022-09-24T09:50:29.315Z,5.70
2022-09-24T09:52:57.298Z,6.72
2022-09-24T09:55:27.330Z,6.03
2022-09-24T09:58:11.293Z,5.63
2022-09-24T10:00:40.105Z,5.40
2022-09-24T10:03:08.194Z,5.75
2022-09-24T10:05:36.184Z,7.05
2022-09-24T10:08:03.923Z,6.80
2022-09-24T10:10:31.711Z,5.80
2022-09-24T10:13:11.147Z,5.95
2022-09-24T10:15:49.323Z,6.05
2022-09-24T10:18:17.483Z,5.60
2022-09-24T10:20:49.432Z,5.90
2022-09-24T10:23:22.263Z,6.00
2022-09-24T10:26:01.672Z,6.57
2022-09-24T10:28:49.772Z,7.72
2022-09-24T10:31:22.111Z,5.65
2022-09-24T10:33:52.205Z,6.10
2022-09-24T10:36:22.811Z,6.47
2022-09-24T10:39:01.923Z,6.00
2022-09-24T10:41:31.354Z,7.50
2022-09-24T10:44:05.221Z,6.45
2022-09-24T10:46:54.471Z,6.47
2022-09-24T10:49:35.334Z,6.68
2022-09-24T10:52:10.619Z,7.03
2022-09-24T10:54:49.797Z,6.70
2022-09-24T10:57:28.659Z,7.38
2022-09-24T11:00:05.477Z,7.53
2022-09-24T11:03:08.057Z,7.43
2022-09-24T11:05:41.078Z,7.83
2022-09-24T11:08:20.923Z,7.18
2022-09-24T11:11:02.616Z,7.95
2022-09-24T11:13:40.927Z,7.57
2022-09-24T11:16:42.398Z,8.20
2022-09-24T11:19:25.605Z,9.52
2022-09-24T11:22:09.079Z,8.85
2022-09-24T11:24:53.199Z,8.25
2022-09-24T11:27:42.910Z,8.32
2022-09-24T11:30:14.074Z,9.07
2022-09-24T11:33:01.235Z,9.30
2022-09-24T11:35:42.974Z,8.90
2022-09-24T11:38:15.110Z,9.40
2022-09-24T11:41:00.213Z,10.13
2022-09-24T11:43:46.600Z,10.32
2022-09-24T11:46:27.738Z,9.60
2022-09-24T11:49:16.366Z,9.40
2022-09-24T11:51:53.336Z,9.50
2022-09-24T11:54:27.871Z,9.90
2022-09-24T11:57:01.732Z,9.95
2022-09-24T11:59:39.220Z,9.65
2022-09-24T12:02:13.951Z,9.37
2022-09-24T12:04:52.089Z,9.47
2022-09-24T12:07:25.096Z,10.00
2022-09-24T12:09:59.852Z,9.82
2022-09-24T12:12:31.124Z,10.25
2022-09-24T12:15:03.324Z,10.20
2022-09-24T12:17:37.389Z,9.80
2022-09-24T12:20:14.671Z,10.57
2022-09-24T12:22:43.312Z,9.88
2022-09-24T12:25:13.495Z,9.75
2022-09-24T12:27:41.323Z,9.97
2022-09-24T12:30:43.363Z,10.67
2022-09-24T12:33:18.372Z,9.77
2022-09-24T12:36:01.817Z,9.27
2022-09-24T12:38:34.761Z,9.80
2022-09-24T12:41:24.422Z,9.52
2022-09-24T12:43:58.057Z,9.60
2022-09-24T12:46:29.080Z,10.23
2022-09-24T12:48:57.373Z,9.77
2022-09-24T12:51:36.211Z,9.75
2022-09-24T12:54:09.334Z,9.05
2022-09-24T12:56:37.220Z,8.87
2022-09-24T12:59:05.504Z,8.38
2022-09-24T13:01:35.294Z,8.00
2022-09-24T13:04:24.469Z,8.13
2022-09-24T13:06:54.232Z,7.50
2022-09-24T13:09:33.768Z,8.00
2022-09-24T13:12:04.354Z,7.22
2022-09-24T13:14:33.463Z,8.00
2022-09-24T13:17:06.497Z,7.57
2022-09-24T13:19:38.704Z,7.72
2022-09-24T13:22:20.330Z,7.75
2022-09-24T13:24:50.880Z,8.13
2022-09-24T13:27:24.793Z,7.28
2022-09-24T13:30:05.526Z,8.30
2022-09-24T13:32:39.920Z,8.00
2022-09-24T13:35:19.512Z,8.80
2022-09-24T13:37:56.685Z,8.70
2022-09-24T13:40:29.745Z,8.15
2022-09-24T13:43:03.846Z,8.10
2022-09-24T13:45:33.439Z,7.72
2022-09-24T13:48:05.322Z,8.17
2022-09-24T13:50:36.411Z,8.07
2022-09-24T13:53:08.759Z,8.27
2022-09-24T13:55:40.931Z,7.53
2022-09-24T13:58:28.374Z,7.17
2022-09-24T14:00:58.253Z,7.00
2022-09-24T14:03:29.624Z,7.18
2022-09-24T14:05:57.960Z,6.85
2022-09-24T14:08:29.858Z,6.45
2022-09-24T14:11:09.636Z,6.80
2022-09-24T14:13:42.037Z,6.57
2022-09-24T14:16:11.525Z,7.05
2022-09-24T14:18:39.941Z,7.35
2022-09-24T14:21:12.814Z,7.43
2022-09-24T14:23:46.699Z,9.95
2022-09-24T14:26:24.415Z,10.18
2022-09-24T14:28:52.459Z,8.90
2022-09-24T14:31:20.242Z,10.30
2022-09-24T14:33:48.327Z,9.18
2022-09-24T14:36:16.965Z,9.45
2022-09-24T14:38:56.931Z,9.02
2022-09-24T14:41:29.097Z,9.10
2022-09-24T14:44:01.169Z,9.45
2022-09-24T14:46:32.179Z,9.45
2022-09-24T14:49:08.004Z,10.03
2022-09-24T14:51:37.139Z,8.80
2022-09-24T14:54:22.377Z,8.43
2022-09-24T14:56:50.170Z,8.52
2022-09-24T14:59:29.684Z,8.75
2022-09-24T15:02:11.511Z,8.40
2022-09-24T15:04:39.415Z,8.73
2022-09-24T15:07:07.328Z,8.88
2022-09-24T15:09:38.459Z,8.90
2022-09-24T15:12:11.255Z,8.60
2022-09-24T15:14:43.852Z,9.32
2022-09-24T15:17:26.972Z,8.38
2022-09-24T15:19:56.341Z,9.73
2022-09-24T15:22:26.642Z,11.88
2022-09-24T15:25:01.235Z,10.77
2022-09-24T15:27:39.513Z,9.60
2022-09-24T15:30:12.346Z,10.00
2022-09-24T15:33:00.550Z,11.07
2022-09-24T15:35:34.050Z,11.13
2022-09-24T15:38:01.980Z,10.40
2022-09-24T15:40:35.254Z,11.17
2022-09-24T15:43:03.778Z,10.80
2022-09-24T15:45:32.312Z,12.05
2022-09-24T15:48:00.055Z,10.88
2022-09-24T15:50:27.892Z,10.63
2022-09-24T15:52:59.845Z,11.43
2022-09-24T15:55:28.282Z,11.80
2022-09-24T15:57:57.411Z,12.20
2022-09-24T16:00:26.318Z,11.90
2022-09-24T16:02:57.535Z,13.30
2022-09-24T16:05:26.540Z,13.13
2022-09-24T16:07:54.306Z,13.18
2022-09-24T16:10:22.322Z,13.70
2022-09-24T16:12:50.121Z,15.30
2022-09-24T16:15:19.432Z,15.07
2022-09-24T16:17:49.756Z,15.32
2022-09-24T16:20:20.199Z,16.85
2022-09-24T16:22:48.576Z,17.58
2022-09-24T16:25:32.470Z,18.63
2022-09-24T16:28:01.359Z,18.45
2022-09-24T16:30:33.015Z,18.77
2022-09-24T16:33:02.808Z,18.23
2022-09-24T16:35:30.544Z,18.70
2022-09-24T16:37:58.373Z,19.23
2022-09-24T16:40:26.245Z,19.88
2022-09-24T16:42:54.352Z,19.80
2022-09-24T16:45:22.117Z,21.50
2022-09-24T16:47:51.272Z,20.90
2022-09-24T16:50:20.108Z,20.92
2022-09-24T16:52:49.081Z,20.83
2022-09-24T16:55:17.301Z,21.83
2022-09-24T16:57:45.059Z,22.35
2022-09-24T17:00:14.100Z,23.83
2022-09-24T17:02:41.900Z,22.88
2022-09-24T17:05:11.400Z,22.55
2022-09-24T17:07:39.141Z,23.73
2022-09-24T17:10:16.050Z,22.52
2022-09-24T17:12:45.596Z,23.17
2022-09-24T17:15:14.778Z,22.05
2022-09-24T17:17:49.454Z,22.13
2022-09-24T17:20:20.076Z,23.52
2022-09-24T17:22:48.531Z,23.23
2022-09-24T17:25:16.456Z,24.83
2022-09-24T17:27:44.855Z,25.20
2022-09-24T17:30:13.403Z,23.53
2022-09-24T17:32:41.165Z,25.15
2022-09-24T17:35:09.825Z,24.40
2022-09-24T17:37:39.128Z,26.45
2022-09-24T17:40:08.007Z,26.98
2022-09-24T17:42:35.882Z,27.35
2022-09-24T17:45:04.290Z,26.67
2022-09-24T17:47:52.105Z,24.58
2022-09-24T17:50:19.889Z,27.77
2022-09-24T17:52:49.268Z,27.23
2022-09-24T17:55:17.357Z,27.77
2022-09-24T17:57:45.111Z,26.42
2022-09-24T18:00:13.758Z,28.92
2022-09-24T18:02:41.628Z,29.02
2022-09-24T18:05:10.645Z,30.27
2022-09-24T18:07:38.556Z,28.17
2022-09-24T18:10:10.121Z,30.30
2022-09-24T18:12:38.180Z,30.47
2022-09-24T18:15:06.576Z,30.60
2022-09-24T18:17:34.379Z,32.03
2022-09-24T18:20:02.630Z,30.00
2022-09-24T18:22:30.475Z,29.85
2022-09-24T18:25:01.578Z,31.83
2022-09-24T18:27:31.365Z,29.08
2022-09-24T18:29:59.572Z,30.63
2022-09-24T18:32:29.826Z,31.65
2022-09-24T18:34:57.661Z,34.72
2022-09-24T18:37:25.594Z,35.20
2022-09-24T18:39:53.395Z,32.25
2022-09-24T18:42:21.185Z,33.95
2022-09-24T18:44:50.660Z,33.47
2022-09-24T18:47:20.179Z,39.15
2022-09-24T18:49:49.140Z,34.20
2022-09-24T18:52:16.949Z,34.13
2022-09-24T18:54:44.711Z,33.30
2022-09-24T18:57:12.512Z,33.83
2022-09-24T18:59:44.727Z,34.33
2022-09-24T19:02:15.040Z,35.50
2022-09-24T19:04:43.009Z,37.58
2022-09-24T19:07:10.924Z,34.15
2022-09-24T19:09:38.847Z,37.10
2022-09-24T19:12:08.647Z,33.72
2022-09-24T19:14:36.686Z,35.20
2022-09-24T19:17:05.551Z,34.30
2022-09-24T19:19:34.787Z,36.45
2022-09-24T19:22:02.744Z,35.30
2022-09-24T19:24:30.548Z,35.33
2022-09-24T19:26:58.386Z,34.58
2022-09-24T19:29:26.327Z,33.60
2022-09-24T19:31:54.149Z,32.00
2022-09-24T19:34:21.969Z,31.77
2022-09-24T19:36:51.195Z,34.43
2022-09-24T19:39:19.558Z,33.17
2022-09-24T19:41:47.389Z,33.80
2022-09-24T19:44:16.505Z,34.10
2022-09-24T19:46:44.795Z,33.67
2022-09-24T19:49:12.636Z,33.30
2022-09-24T19:51:40.564Z,34.80
2022-09-24T19:54:11.223Z,37.55
2022-09-24T19:56:39.939Z,37.03
2022-09-24T19:59:08.588Z,37.53
2022-09-24T20:01:36.652Z,35.78
2022-09-24T20:04:07.099Z,35.63
2022-09-24T20:06:36.517Z,37.22
2022-09-24T20:09:05.231Z,39.78
2022-09-24T20:11:34.535Z,35.60
2022-09-24T20:14:05.750Z,38.45
2022-09-24T20:16:33.776Z,40.00
2022-09-24T20:19:03.137Z,42.05
2022-09-24T20:21:34.467Z,37.45
2022-09-24T20:24:03.625Z,38.40
2022-09-24T20:26:48.961Z,39.03
2022-09-24T20:29:19.512Z,40.22
2022-09-24T20:31:52.191Z,39.08
2022-09-24T20:34:21.011Z,38.67
2022-09-24T20:36:49.230Z,40.17
2022-09-24T20:39:17.662Z,42.03
2022-09-24T20:41:45.698Z,40.45
2022-09-24T20:44:13.730Z,37.95
2022-09-24T20:46:43.290Z,39.67
2022-09-24T20:49:18.119Z,40.30
2022-09-24T20:51:45.875Z,39.95
2022-09-24T20:54:13.622Z,40.58
2022-09-24T20:56:42.069Z,39.33
2022-09-24T20:59:10.080Z,40.60
2022-09-24T21:01:39.188Z,39.58
2022-09-24T21:04:08.359Z,37.40
2022-09-24T21:06:37.149Z,36.30
2022-09-24T21:09:05.350Z,37.03
2022-09-24T21:11:33.164Z,37.08
2022-09-24T21:14:03.192Z,33.72
2022-09-24T21:16:32.905Z,36.05
2022-09-24T21:19:01.643Z,36.22
2022-09-24T21:21:34.611Z,33.35
2022-09-24T21:24:03.331Z,35.13
2022-09-24T21:26:32.994Z,33.40
2022-09-24T21:29:03.347Z,34.28
2022-09-24T21:31:33.518Z,34.63
2022-09-24T21:34:01.984Z,34.67
2022-09-24T21:36:34.059Z,30.65
2022-09-24T21:39:03.399Z,31.33
2022-09-24T21:41:33.026Z,33.57
2022-09-24T21:44:02.215Z,33.30
2022-09-24T21:46:31.168Z,34.58
2022-09-24T21:48:59.988Z,32.90
2022-09-24T21:51:29.942Z,32.72
2022-09-24T21:54:01.625Z,36.53
2022-09-24T21:56:31.177Z,34.28
2022-09-24T21:58:59.781Z,31.92
2022-09-24T22:01:30.843Z,33.88
2022-09-24T22:04:00.531Z,28.70
2022-09-24T22:06:29.836Z,30.48
2022-09-24T22:09:02.355Z,30.25
2022-09-24T22:11:31.113Z,29.13
2022-09-24T22:14:01.079Z,27.88
2022-09-24T22:16:30.285Z,26.83
2022-09-24T22:18:58.755Z,27.08
2022-09-24T22:21:27.094Z,26.40
2022-09-24T22:23:56.294Z,26.38
2022-09-24T22:26:26.224Z,26.52
2022-09-24T22:28:55.211Z,27.30
2022-09-24T22:31:23.240Z,25.10
2022-09-24T22:34:08.537Z,24.13
2022-09-24T22:36:36.730Z,23.88
2022-09-24T22:39:05.996Z,25.02
2022-09-24T22:41:37.791Z,24.25
2022-09-24T22:44:05.894Z,23.88
2022-09-24T22:46:35.901Z,22.13
2022-09-24T22:49:05.882Z,24.33
2022-09-24T22:51:33.999Z,23.55
2022-09-24T22:54:01.790Z,25.57
2022-09-24T22:56:30.075Z,24.08
2022-09-24T22:59:01.440Z,23.75
2022-09-24T23:04:23.847Z,21.13
2022-09-24T23:06:51.667Z,22.37
2022-09-24T23:09:20.515Z,28.67
2022-09-24T23:11:48.331Z,24.88
2022-09-24T23:14:17.819Z,25.27
2022-09-24T23:16:46.613Z,24.53
2022-09-24T23:19:16.823Z,25.05
2022-09-24T23:21:45.611Z,23.75
2022-09-24T23:24:15.682Z,25.70
2022-09-24T23:26:43.612Z,22.55
2022-09-24T23:29:12.414Z,22.42
2022-09-24T23:31:41.688Z,26.20
2022-09-24T23:34:09.540Z,25.73
2022-09-24T23:36:37.677Z,24.17
2022-09-24T23:39:06.448Z,23.55
2022-09-24T23:41:34.540Z,23.00
2022-09-24T23:44:02.738Z,24.35
2022-09-24T23:46:30.594Z,21.60
2022-09-24T23:49:00.171Z,22.40
2022-09-24T23:51:27.999Z,21.80
2022-09-24T23:53:55.827Z,21.23
2022-09-24T23:56:23.634Z,21.67
2022-09-24T23:58:51.434Z,19.17
